首页
METAR-TAF:

METAR-TAF

机场 :

Karl Stefan Memorial Airport

诺福克, 內布拉斯加州, 美国

纬度: 41-58-50N, 经度: 097-26-13W, 海拔: 479米

当前天气观测

该预报发布于55分钟前的03:56 UTC
风速7节,风向北转西北
温度 0°C
湿度 80%
气压 1020 hPa
能見度: 16.1公里
少量云层高于2100英尺

METAR: KOFK 140356Z AUTO 34007KT 10SM FEW021 00/M03 A3013 RMK AO2 SLP221 T00001028

时间: 22:51 (04:51 UTC)

预报

该预报发布于2小时和37分钟前的02:14 UTC
预报有效从14日的 02点(UTC)到 14日的 24点(UTC)
风速10节,风向北转西北
能見度: 10公里
多云层高于5000英尺
从 14日的 0500点(UTC)
风速8节,风向北转西北
能見度: 10公里
散云层高于5000英尺
从 14日的 1900点(UTC)
风速5节,风向西
能見度: 10公里
散云层高于20000英尺

TAF: KOFK 140214Z 1402/1424 33010KT P6SM BKN050 FM140500 33008KT P6SM SCT050 FM141900 27005KT P6SM SCT200

超过4000个机场的气象观测和天气预报(METAR&TAF报告)。

可查询的气象台以黄色和红色小点在地图上表示。

将鼠标移到小点上方,可查看气象台名称。

然后点击查看天气观测和预报。

如需切换地图:点击带黑十字的绿色按钮放大地图;点击带横线的绿色按钮缩小地图;或者点击绿色箭头查看邻近地区的地图。


METAR-TAF: